Terminal Aerodrome Forecast
Issued by NWS Burlington, VT

Home | Current Version | Previous Version | Text Only | Print | Product List | Glossary On
Versions: 1 2 3 4 5 6 7 8 9 10 11 12 13 14 15 16 17 18 19 20 21 22 23
000
FTUS41 KBTV 241738
TAFBTV
TAF
KBTV 241738Z 2418/2518 36007KT P6SM OVC019
      TEMPO 2418/2422 OVC025
     FM242200 36004KT P6SM OVC025
     FM250000 VRB03KT P6SM OVC035
     FM250300 VRB03KT P6SM SCT035 BKN150
     FM251400 21008KT P6SM SCT200=

USA.gov is the U.S. government's official web portal to all federal, state and local government web resources and services.